sensor_id;sensor_type;location;lat;lon;timestamp;P1;durP1;ratioP1;P2;durP2;ratioP2
3257;SDS011;1641;51.306;12.384;2023-11-19T00:01:43;4.25;;;3.33;;
3257;SDS011;1641;51.306;12.384;2023-11-19T00:04:09;6.68;;;3.83;;
3257;SDS011;1641;51.306;12.384;2023-11-19T00:06:34;5.57;;;3.45;;
3257;SDS011;1641;51.306;12.384;2023-11-19T00:08:59;3.67;;;2.95;;
3257;SDS011;1641;51.306;12.384;2023-11-19T00:11:25;3.63;;;3.33;;
3257;SDS011;1641;51.306;12.384;2023-11-19T00:13:50;5.85;;;5.13;;
3257;SDS011;1641;51.306;12.384;2023-11-19T00:16:15;5.80;;;3.13;;
3257;SDS011;1641;51.306;12.384;2023-11-19T00:18:41;2.70;;;2.50;;
3257;SDS011;1641;51.306;12.384;2023-11-19T00:21:06;3.13;;;2.80;;
3257;SDS011;1641;51.306;12.384;2023-11-19T00:23:33;2.35;;;1.98;;
3257;SDS011;1641;51.306;12.384;2023-11-19T00:25:58;3.05;;;2.42;;
3257;SDS011;1641;51.306;12.384;2023-11-19T00:28:23;3.65;;;2.58;;
3257;SDS011;1641;51.306;12.384;2023-11-19T00:30:49;2.88;;;2.55;;
3257;SDS011;1641;51.306;12.384;2023-11-19T00:33:14;2.85;;;2.47;;
3257;SDS011;1641;51.306;12.384;2023-11-19T00:35:39;2.25;;;1.92;;
3257;SDS011;1641;51.306;12.384;2023-11-19T00:38:04;3.78;;;2.03;;
3257;SDS011;1641;51.306;12.384;2023-11-19T00:40:30;3.22;;;1.80;;
3257;SDS011;1641;51.306;12.384;2023-11-19T00:42:55;2.10;;;1.90;;
3257;SDS011;1641;51.306;12.384;2023-11-19T00:45:20;1.80;;;1.70;;
3257;SDS011;1641;51.306;12.384;2023-11-19T00:47:46;1.90;;;1.67;;
3257;SDS011;1641;51.306;12.384;2023-11-19T00:50:11;2.17;;;1.85;;
3257;SDS011;1641;51.306;12.384;2023-11-19T00:52:37;1.75;;;1.65;;
3257;SDS011;1641;51.306;12.384;2023-11-19T00:55:03;2.92;;;1.63;;
3257;SDS011;1641;51.306;12.384;2023-11-19T00:57:29;2.40;;;1.42;;
3257;SDS011;1641;51.306;12.384;2023-11-19T00:59:58;1.95;;;1.60;;
3257;SDS011;1641;51.306;12.384;2023-11-19T01:02:23;2.40;;;1.50;;
3257;SDS011;1641;51.306;12.384;2023-11-19T01:04:49;2.40;;;1.40;;
3257;SDS011;1641;51.306;12.384;2023-11-19T01:07:14;2.58;;;1.70;;
3257;SDS011;1641;51.306;12.384;2023-11-19T01:09:43;2.60;;;1.55;;
3257;SDS011;1641;51.306;12.384;2023-11-19T01:12:08;1.98;;;1.77;;
3257;SDS011;1641;51.306;12.384;2023-11-19T01:14:35;1.30;;;1.20;;
3257;SDS011;1641;51.306;12.384;2023-11-19T01:17:01;1.83;;;1.23;;
3257;SDS011;1641;51.306;12.384;2023-11-19T01:19:26;1.20;;;1.10;;
3257;SDS011;1641;51.306;12.384;2023-11-19T01:21:53;1.45;;;1.35;;
3257;SDS011;1641;51.306;12.384;2023-11-19T01:24:18;1.45;;;1.10;;
3257;SDS011;1641;51.306;12.384;2023-11-19T01:26:44;1.50;;;1.40;;
3257;SDS011;1641;51.306;12.384;2023-11-19T01:29:13;1.40;;;1.30;;
3257;SDS011;1641;51.306;12.384;2023-11-19T01:31:40;1.73;;;1.48;;
3257;SDS011;1641;51.306;12.384;2023-11-19T01:34:05;1.73;;;1.58;;
3257;SDS011;1641;51.306;12.384;2023-11-19T01:36:31;1.50;;;1.40;;
3257;SDS011;1641;51.306;12.384;2023-11-19T01:38:56;1.70;;;1.52;;
3257;SDS011;1641;51.306;12.384;2023-11-19T01:41:21;1.25;;;1.00;;
3257;SDS011;1641;51.306;12.384;2023-11-19T01:43:47;1.38;;;1.27;;
3257;SDS011;1641;51.306;12.384;2023-11-19T01:46:12;1.30;;;1.20;;
3257;SDS011;1641;51.306;12.384;2023-11-19T01:48:41;1.25;;;1.17;;
3257;SDS011;1641;51.306;12.384;2023-11-19T01:51:09;1.98;;;1.45;;
3257;SDS011;1641;51.306;12.384;2023-11-19T01:53:35;1.30;;;1.20;;
3257;SDS011;1641;51.306;12.384;2023-11-19T01:56:04;1.52;;;1.42;;
3257;SDS011;1641;51.306;12.384;2023-11-19T01:58:37;2.22;;;2.03;;
3257;SDS011;1641;51.306;12.384;2023-11-19T02:01:04;1.60;;;1.50;;
3257;SDS011;1641;51.306;12.384;2023-11-19T02:03:36;3.05;;;1.50;;
3257;SDS011;1641;51.306;12.384;2023-11-19T02:06:02;1.70;;;1.60;;
3257;SDS011;1641;51.306;12.384;2023-11-19T02:08:28;1.98;;;1.50;;
3257;SDS011;1641;51.306;12.384;2023-11-19T02:10:54;2.00;;;1.75;;
3257;SDS011;1641;51.306;12.384;2023-11-19T02:13:22;1.73;;;1.63;;
3257;SDS011;1641;51.306;12.384;2023-11-19T02:15:48;1.90;;;1.80;;
3257;SDS011;1641;51.306;12.384;2023-11-19T02:18:17;3.60;;;1.85;;
3257;SDS011;1641;51.306;12.384;2023-11-19T02:20:45;2.55;;;1.65;;
3257;SDS011;1641;51.306;12.384;2023-11-19T02:23:11;2.28;;;1.70;;
3257;SDS011;1641;51.306;12.384;2023-11-19T02:25:38;2.60;;;1.55;;
3257;SDS011;1641;51.306;12.384;2023-11-19T02:28:05;2.25;;;2.05;;
3257;SDS011;1641;51.306;12.384;2023-11-19T02:30:31;2.30;;;2.10;;
3257;SDS011;1641;51.306;12.384;2023-11-19T02:32:57;2.42;;;1.85;;
3257;SDS011;1641;51.306;12.384;2023-11-19T02:35:26;4.53;;;1.58;;
3257;SDS011;1641;51.306;12.384;2023-11-19T02:37:53;2.47;;;2.00;;
3257;SDS011;1641;51.306;12.384;2023-11-19T02:40:19;2.03;;;1.83;;
3257;SDS011;1641;51.306;12.384;2023-11-19T02:42:44;1.75;;;1.65;;
3257;SDS011;1641;51.306;12.384;2023-11-19T02:45:18;1.80;;;1.70;;
3257;SDS011;1641;51.306;12.384;2023-11-19T02:47:43;1.73;;;1.60;;
3257;SDS011;1641;51.306;12.384;2023-11-19T02:50:10;1.98;;;1.83;;
3257;SDS011;1641;51.306;12.384;2023-11-19T02:52:42;2.00;;;1.80;;
3257;SDS011;1641;51.306;12.384;2023-11-19T02:55:08;4.07;;;2.08;;
3257;SDS011;1641;51.306;12.384;2023-11-19T02:57:37;2.28;;;2.05;;
3257;SDS011;1641;51.306;12.384;2023-11-19T03:00:17;2.20;;;2.00;;
3257;SDS011;1641;51.306;12.384;2023-11-19T03:02:44;2.05;;;1.60;;
3257;SDS011;1641;51.306;12.384;2023-11-19T03:05:14;1.77;;;1.67;;
3257;SDS011;1641;51.306;12.384;2023-11-19T03:07:40;2.15;;;1.95;;
3257;SDS011;1641;51.306;12.384;2023-11-19T03:10:08;4.35;;;2.10;;
3257;SDS011;1641;51.306;12.384;2023-11-19T03:12:34;2.65;;;1.60;;
3257;SDS011;1641;51.306;12.384;2023-11-19T03:14:59;1.83;;;1.60;;
3257;SDS011;1641;51.306;12.384;2023-11-19T03:17:24;2.05;;;1.85;;
3257;SDS011;1641;51.306;12.384;2023-11-19T03:19:50;2.67;;;2.00;;
3257;SDS011;1641;51.306;12.384;2023-11-19T03:22:15;2.22;;;1.95;;
3257;SDS011;1641;51.306;12.384;2023-11-19T03:24:40;2.08;;;1.88;;
3257;SDS011;1641;51.306;12.384;2023-11-19T03:27:06;2.95;;;1.65;;
3257;SDS011;1641;51.306;12.384;2023-11-19T03:29:31;3.53;;;1.70;;
3257;SDS011;1641;51.306;12.384;2023-11-19T03:31:56;1.90;;;1.45;;
3257;SDS011;1641;51.306;12.384;2023-11-19T03:34:22;1.95;;;1.35;;
3257;SDS011;1641;51.306;12.384;2023-11-19T03:36:47;3.30;;;2.03;;
3257;SDS011;1641;51.306;12.384;2023-11-19T03:39:13;1.75;;;1.65;;
3257;SDS011;1641;51.306;12.384;2023-11-19T03:41:38;1.77;;;1.67;;
3257;SDS011;1641;51.306;12.384;2023-11-19T03:44:04;1.80;;;1.60;;
3257;SDS011;1641;51.306;12.384;2023-11-19T03:46:29;2.03;;;1.50;;
3257;SDS011;1641;51.306;12.384;2023-11-19T03:48:55;2.05;;;1.60;;
3257;SDS011;1641;51.306;12.384;2023-11-19T03:51:20;7.45;;;2.67;;
3257;SDS011;1641;51.306;12.384;2023-11-19T03:53:45;1.63;;;1.52;;
3257;SDS011;1641;51.306;12.384;2023-11-19T03:56:11;1.40;;;1.30;;
3257;SDS011;1641;51.306;12.384;2023-11-19T03:58:37;1.80;;;1.60;;
3257;SDS011;1641;51.306;12.384;2023-11-19T04:01:03;1.88;;;1.70;;
3257;SDS011;1641;51.306;12.384;2023-11-19T04:03:38;1.67;;;1.40;;
3257;SDS011;1641;51.306;12.384;2023-11-19T04:06:03;1.42;;;1.33;;
3257;SDS011;1641;51.306;12.384;2023-11-19T04:08:29;2.10;;;1.60;;
3257;SDS011;1641;51.306;12.384;2023-11-19T04:10:55;3.08;;;2.13;;
3257;SDS011;1641;51.306;12.384;2023-11-19T04:13:20;2.50;;;1.30;;
3257;SDS011;1641;51.306;12.384;2023-11-19T04:15:45;1.63;;;1.25;;
3257;SDS011;1641;51.306;12.384;2023-11-19T04:18:10;3.28;;;1.52;;
3257;SDS011;1641;51.306;12.384;2023-11-19T04:20:36;2.08;;;1.50;;
3257;SDS011;1641;51.306;12.384;2023-11-19T04:23:01;1.30;;;1.20;;
3257;SDS011;1641;51.306;12.384;2023-11-19T04:25:27;1.30;;;1.20;;
3257;SDS011;1641;51.306;12.384;2023-11-19T04:27:52;1.58;;;1.23;;
3257;SDS011;1641;51.306;12.384;2023-11-19T04:30:18;1.38;;;1.00;;
3257;SDS011;1641;51.306;12.384;2023-11-19T04:32:43;1.38;;;1.00;;
3257;SDS011;1641;51.306;12.384;2023-11-19T04:35:09;1.42;;;1.20;;
3257;SDS011;1641;51.306;12.384;2023-11-19T04:37:34;1.05;;;0.90;;
3257;SDS011;1641;51.306;12.384;2023-11-19T04:39:59;1.92;;;0.90;;
3257;SDS011;1641;51.306;12.384;2023-11-19T04:42:25;1.33;;;1.15;;
3257;SDS011;1641;51.306;12.384;2023-11-19T04:44:50;1.10;;;1.08;;
3257;SDS011;1641;51.306;12.384;2023-11-19T04:47:15;1.63;;;0.82;;
3257;SDS011;1641;51.306;12.384;2023-11-19T04:49:41;1.48;;;0.60;;
3257;SDS011;1641;51.306;12.384;2023-11-19T04:52:09;0.80;;;0.80;;
3257;SDS011;1641;51.306;12.384;2023-11-19T04:54:34;1.02;;;0.93;;
3257;SDS011;1641;51.306;12.384;2023-11-19T04:56:59;1.10;;;1.00;;
3257;SDS011;1641;51.306;12.384;2023-11-19T04:59:25;4.85;;;1.00;;
3257;SDS011;1641;51.306;12.384;2023-11-19T05:01:52;1.45;;;0.98;;
3257;SDS011;1641;51.306;12.384;2023-11-19T05:04:17;2.33;;;0.85;;
3257;SDS011;1641;51.306;12.384;2023-11-19T05:06:43;1.13;;;0.73;;
3257;SDS011;1641;51.306;12.384;2023-11-19T05:09:09;1.05;;;0.98;;
3257;SDS011;1641;51.306;12.384;2023-11-19T05:11:34;1.40;;;0.90;;
3257;SDS011;1641;51.306;12.384;2023-11-19T05:14:00;0.77;;;0.77;;
3257;SDS011;1641;51.306;12.384;2023-11-19T05:16:29;0.60;;;0.60;;
3257;SDS011;1641;51.306;12.384;2023-11-19T05:18:54;1.83;;;0.90;;
3257;SDS011;1641;51.306;12.384;2023-11-19T05:21:20;0.80;;;0.45;;
3257;SDS011;1641;51.306;12.384;2023-11-19T05:23:46;0.70;;;0.70;;
3257;SDS011;1641;51.306;12.384;2023-11-19T05:26:21;0.88;;;0.70;;
3257;SDS011;1641;51.306;12.384;2023-11-19T05:28:47;0.88;;;0.70;;
3257;SDS011;1641;51.306;12.384;2023-11-19T05:31:13;0.60;;;0.60;;
3257;SDS011;1641;51.306;12.384;2023-11-19T05:33:38;0.85;;;0.85;;
3257;SDS011;1641;51.306;12.384;2023-11-19T05:36:05;0.50;;;0.50;;
3257;SDS011;1641;51.306;12.384;2023-11-19T05:38:35;0.63;;;0.63;;
3257;SDS011;1641;51.306;12.384;2023-11-19T05:41:03;0.70;;;0.70;;
3257;SDS011;1641;51.306;12.384;2023-11-19T05:43:36;0.65;;;0.65;;
3257;SDS011;1641;51.306;12.384;2023-11-19T05:46:02;1.40;;;1.05;;
3257;SDS011;1641;51.306;12.384;2023-11-19T05:48:28;0.80;;;0.80;;
3257;SDS011;1641;51.306;12.384;2023-11-19T05:50:53;0.80;;;0.70;;
3257;SDS011;1641;51.306;12.384;2023-11-19T05:53:19;0.60;;;0.60;;
3257;SDS011;1641;51.306;12.384;2023-11-19T05:55:45;1.30;;;1.17;;
3257;SDS011;1641;51.306;12.384;2023-11-19T05:58:23;1.40;;;1.23;;
3257;SDS011;1641;51.306;12.384;2023-11-19T06:00:53;0.90;;;0.90;;
3257;SDS011;1641;51.306;12.384;2023-11-19T06:03:18;1.65;;;0.90;;
3257;SDS011;1641;51.306;12.384;2023-11-19T06:05:44;1.27;;;1.05;;
3257;SDS011;1641;51.306;12.384;2023-11-19T06:08:13;1.42;;;0.80;;
3257;SDS011;1641;51.306;12.384;2023-11-19T06:10:40;0.68;;;0.63;;
3257;SDS011;1641;51.306;12.384;2023-11-19T06:13:05;1.02;;;0.70;;
3257;SDS011;1641;51.306;12.384;2023-11-19T06:15:31;1.23;;;0.65;;
3257;SDS011;1641;51.306;12.384;2023-11-19T06:17:58;0.80;;;0.80;;
3257;SDS011;1641;51.306;12.384;2023-11-19T06:20:28;2.65;;;0.75;;
3257;SDS011;1641;51.306;12.384;2023-11-19T06:22:54;1.65;;;0.80;;
3257;SDS011;1641;51.306;12.384;2023-11-19T06:25:19;1.42;;;0.70;;
3257;SDS011;1641;51.306;12.384;2023-11-19T06:27:45;1.05;;;0.70;;
3257;SDS011;1641;51.306;12.384;2023-11-19T06:30:10;1.00;;;0.95;;
3257;SDS011;1641;51.306;12.384;2023-11-19T06:32:36;3.20;;;0.93;;
3257;SDS011;1641;51.306;12.384;2023-11-19T06:35:02;0.50;;;0.50;;
3257;SDS011;1641;51.306;12.384;2023-11-19T06:37:29;1.23;;;0.93;;
3257;SDS011;1641;51.306;12.384;2023-11-19T06:39:54;0.80;;;0.55;;
3257;SDS011;1641;51.306;12.384;2023-11-19T06:42:20;2.05;;;0.77;;
3257;SDS011;1641;51.306;12.384;2023-11-19T06:44:45;1.00;;;0.80;;
3257;SDS011;1641;51.306;12.384;2023-11-19T06:47:10;0.70;;;0.70;;
3257;SDS011;1641;51.306;12.384;2023-11-19T06:49:36;0.60;;;0.57;;
3257;SDS011;1641;51.306;12.384;2023-11-19T06:52:01;0.63;;;0.63;;
3257;SDS011;1641;51.306;12.384;2023-11-19T06:54:26;1.15;;;0.63;;
3257;SDS011;1641;51.306;12.384;2023-11-19T06:56:51;0.68;;;0.45;;
3257;SDS011;1641;51.306;12.384;2023-11-19T06:59:17;0.55;;;0.50;;
3257;SDS011;1641;51.306;12.384;2023-11-19T07:01:42;0.60;;;0.60;;
3257;SDS011;1641;51.306;12.384;2023-11-19T07:04:10;1.65;;;0.65;;
3257;SDS011;1641;51.306;12.384;2023-11-19T07:06:36;1.00;;;0.45;;
3257;SDS011;1641;51.306;12.384;2023-11-19T07:09:02;0.77;;;0.65;;
3257;SDS011;1641;51.306;12.384;2023-11-19T07:11:34;1.15;;;0.80;;
3257;SDS011;1641;51.306;12.384;2023-11-19T07:14:10;1.13;;;1.02;;
3257;SDS011;1641;51.306;12.384;2023-11-19T07:16:36;0.70;;;0.70;;
3257;SDS011;1641;51.306;12.384;2023-11-19T07:19:05;0.70;;;0.70;;
3257;SDS011;1641;51.306;12.384;2023-11-19T07:21:31;3.42;;;2.13;;
3257;SDS011;1641;51.306;12.384;2023-11-19T07:23:57;1.65;;;1.20;;
3257;SDS011;1641;51.306;12.384;2023-11-19T07:26:23;1.77;;;0.93;;
3257;SDS011;1641;51.306;12.384;2023-11-19T07:28:49;1.63;;;0.70;;
3257;SDS011;1641;51.306;12.384;2023-11-19T07:31:14;1.27;;;1.13;;
3257;SDS011;1641;51.306;12.384;2023-11-19T07:33:40;1.27;;;1.10;;
3257;SDS011;1641;51.306;12.384;2023-11-19T07:36:09;1.75;;;1.20;;
3257;SDS011;1641;51.306;12.384;2023-11-19T07:38:35;4.05;;;3.25;;
3257;SDS011;1641;51.306;12.384;2023-11-19T07:41:00;3.35;;;2.90;;
3257;SDS011;1641;51.306;12.384;2023-11-19T07:43:26;4.47;;;2.80;;
3257;SDS011;1641;51.306;12.384;2023-11-19T07:45:51;6.97;;;4.68;;
3257;SDS011;1641;51.306;12.384;2023-11-19T07:48:16;4.75;;;4.03;;
3257;SDS011;1641;51.306;12.384;2023-11-19T07:50:47;6.07;;;3.28;;
3257;SDS011;1641;51.306;12.384;2023-11-19T07:53:12;5.65;;;2.70;;
3257;SDS011;1641;51.306;12.384;2023-11-19T07:55:38;6.78;;;4.13;;
3257;SDS011;1641;51.306;12.384;2023-11-19T07:58:03;5.70;;;3.60;;
3257;SDS011;1641;51.306;12.384;2023-11-19T08:00:28;6.47;;;3.35;;
3257;SDS011;1641;51.306;12.384;2023-11-19T08:02:54;6.03;;;3.55;;
3257;SDS011;1641;51.306;12.384;2023-11-19T08:05:19;5.85;;;3.20;;
3257;SDS011;1641;51.306;12.384;2023-11-19T08:07:44;5.25;;;3.15;;
3257;SDS011;1641;51.306;12.384;2023-11-19T08:10:09;4.65;;;2.78;;
3257;SDS011;1641;51.306;12.384;2023-11-19T08:12:36;3.65;;;2.65;;
3257;SDS011;1641;51.306;12.384;2023-11-19T08:15:02;3.03;;;2.50;;
3257;SDS011;1641;51.306;12.384;2023-11-19T08:17:29;2.58;;;1.88;;
3257;SDS011;1641;51.306;12.384;2023-11-19T08:19:55;2.03;;;1.38;;
3257;SDS011;1641;51.306;12.384;2023-11-19T08:22:20;2.05;;;1.83;;
3257;SDS011;1641;51.306;12.384;2023-11-19T08:24:45;2.10;;;1.90;;
3257;SDS011;1641;51.306;12.384;2023-11-19T08:27:11;3.45;;;2.15;;
3257;SDS011;1641;51.306;12.384;2023-11-19T08:29:36;1.58;;;0.90;;
3257;SDS011;1641;51.306;12.384;2023-11-19T08:32:01;1.35;;;1.10;;
3257;SDS011;1641;51.306;12.384;2023-11-19T08:34:28;1.02;;;0.90;;
3257;SDS011;1641;51.306;12.384;2023-11-19T08:36:53;1.02;;;0.90;;
3257;SDS011;1641;51.306;12.384;2023-11-19T08:39:19;2.25;;;0.73;;
3257;SDS011;1641;51.306;12.384;2023-11-19T08:41:46;3.03;;;1.52;;
3257;SDS011;1641;51.306;12.384;2023-11-19T08:44:12;1.25;;;1.10;;
3257;SDS011;1641;51.306;12.384;2023-11-19T08:46:37;5.53;;;1.35;;
3257;SDS011;1641;51.306;12.384;2023-11-19T08:49:03;3.10;;;1.30;;
3257;SDS011;1641;51.306;12.384;2023-11-19T08:51:28;3.20;;;1.30;;
3257;SDS011;1641;51.306;12.384;2023-11-19T08:53:53;2.22;;;1.85;;
3257;SDS011;1641;51.306;12.384;2023-11-19T08:56:19;6.85;;;2.72;;
3257;SDS011;1641;51.306;12.384;2023-11-19T08:58:44;6.30;;;3.05;;
3257;SDS011;1641;51.306;12.384;2023-11-19T09:01:09;6.78;;;3.35;;
3257;SDS011;1641;51.306;12.384;2023-11-19T09:03:37;4.47;;;3.33;;
3257;SDS011;1641;51.306;12.384;2023-11-19T09:06:03;3.03;;;2.25;;
3257;SDS011;1641;51.306;12.384;2023-11-19T09:08:28;4.00;;;1.88;;
3257;SDS011;1641;51.306;12.384;2023-11-19T09:10:54;2.92;;;1.45;;
3257;SDS011;1641;51.306;12.384;2023-11-19T09:13:19;3.38;;;1.25;;
3257;SDS011;1641;51.306;12.384;2023-11-19T09:15:44;3.28;;;1.50;;
3257;SDS011;1641;51.306;12.384;2023-11-19T09:18:09;1.70;;;1.17;;
3257;SDS011;1641;51.306;12.384;2023-11-19T09:20:35;4.28;;;1.48;;
3257;SDS011;1641;51.306;12.384;2023-11-19T09:23:06;2.58;;;1.13;;
3257;SDS011;1641;51.306;12.384;2023-11-19T09:25:31;2.30;;;0.68;;
3257;SDS011;1641;51.306;12.384;2023-11-19T09:27:57;1.67;;;0.60;;
3257;SDS011;1641;51.306;12.384;2023-11-19T09:30:22;1.63;;;0.70;;
3257;SDS011;1641;51.306;12.384;2023-11-19T09:32:47;2.78;;;1.40;;
3257;SDS011;1641;51.306;12.384;2023-11-19T09:35:13;3.13;;;0.80;;
3257;SDS011;1641;51.306;12.384;2023-11-19T09:37:39;2.67;;;0.85;;
3257;SDS011;1641;51.306;12.384;2023-11-19T09:40:08;3.13;;;1.27;;
3257;SDS011;1641;51.306;12.384;2023-11-19T09:45:14;1.55;;;0.90;;
3257;SDS011;1641;51.306;12.384;2023-11-19T09:47:44;1.92;;;1.40;;
3257;SDS011;1641;51.306;12.384;2023-11-19T09:50:17;11.10;;;2.67;;
3257;SDS011;1641;51.306;12.384;2023-11-19T09:52:44;4.32;;;1.33;;
3257;SDS011;1641;51.306;12.384;2023-11-19T09:55:10;4.35;;;2.70;;
3257;SDS011;1641;51.306;12.384;2023-11-19T09:57:35;3.22;;;1.92;;
3257;SDS011;1641;51.306;12.384;2023-11-19T10:00:03;5.63;;;3.30;;
3257;SDS011;1641;51.306;12.384;2023-11-19T10:02:33;6.88;;;4.28;;
3257;SDS011;1641;51.306;12.384;2023-11-19T10:05:01;9.90;;;2.85;;
3257;SDS011;1641;51.306;12.384;2023-11-19T10:07:32;10.25;;;4.22;;
3257;SDS011;1641;51.306;12.384;2023-11-19T10:09:59;7.82;;;3.70;;
3257;SDS011;1641;51.306;12.384;2023-11-19T10:12:26;12.02;;;6.22;;
3257;SDS011;1641;51.306;12.384;2023-11-19T10:14:51;15.07;;;4.70;;
3257;SDS011;1641;51.306;12.384;2023-11-19T10:17:26;8.07;;;3.47;;
3257;SDS011;1641;51.306;12.384;2023-11-19T10:19:54;7.30;;;3.85;;
3257;SDS011;1641;51.306;12.384;2023-11-19T10:22:19;15.32;;;8.77;;
3257;SDS011;1641;51.306;12.384;2023-11-19T10:24:45;15.73;;;8.57;;
3257;SDS011;1641;51.306;12.384;2023-11-19T10:27:10;9.15;;;4.40;;
3257;SDS011;1641;51.306;12.384;2023-11-19T10:29:36;11.82;;;3.97;;
3257;SDS011;1641;51.306;12.384;2023-11-19T10:32:02;13.93;;;4.07;;
3257;SDS011;1641;51.306;12.384;2023-11-19T10:34:28;5.55;;;2.83;;
3257;SDS011;1641;51.306;12.384;2023-11-19T10:36:54;14.32;;;4.50;;
3257;SDS011;1641;51.306;12.384;2023-11-19T10:39:23;8.55;;;3.67;;
3257;SDS011;1641;51.306;12.384;2023-11-19T10:41:52;5.05;;;2.72;;
3257;SDS011;1641;51.306;12.384;2023-11-19T10:44:30;11.68;;;3.58;;
3257;SDS011;1641;51.306;12.384;2023-11-19T10:47:00;14.95;;;3.85;;
3257;SDS011;1641;51.306;12.384;2023-11-19T10:49:26;6.63;;;2.13;;
3257;SDS011;1641;51.306;12.384;2023-11-19T10:51:51;6.35;;;2.55;;
3257;SDS011;1641;51.306;12.384;2023-11-19T10:54:18;14.95;;;2.92;;
3257;SDS011;1641;51.306;12.384;2023-11-19T10:56:44;3.72;;;1.70;;
3257;SDS011;1641;51.306;12.384;2023-11-19T10:59:10;3.45;;;1.30;;
3257;SDS011;1641;51.306;12.384;2023-11-19T11:01:46;5.90;;;1.35;;
3257;SDS011;1641;51.306;12.384;2023-11-19T11:04:16;4.88;;;1.75;;
3257;SDS011;1641;51.306;12.384;2023-11-19T11:09:12;6.75;;;1.75;;
3257;SDS011;1641;51.306;12.384;2023-11-19T11:11:46;10.20;;;3.13;;
3257;SDS011;1641;51.306;12.384;2023-11-19T11:14:12;4.80;;;1.85;;
3257;SDS011;1641;51.306;12.384;2023-11-19T11:16:44;7.43;;;1.90;;
3257;SDS011;1641;51.306;12.384;2023-11-19T11:19:11;6.30;;;2.67;;
3257;SDS011;1641;51.306;12.384;2023-11-19T11:21:41;9.85;;;1.63;;
3257;SDS011;1641;51.306;12.384;2023-11-19T11:29:52;5.20;;;1.60;;
3257;SDS011;1641;51.306;12.384;2023-11-19T11:32:41;8.95;;;1.73;;
3257;SDS011;1641;51.306;12.384;2023-11-19T11:35:24;6.97;;;2.10;;
3257;SDS011;1641;51.306;12.384;2023-11-19T11:38:21;9.80;;;1.98;;
3257;SDS011;1641;51.306;12.384;2023-11-19T11:41:31;12.90;;;2.58;;
3257;SDS011;1641;51.306;12.384;2023-11-19T11:43:51;11.82;;;2.45;;
3257;SDS011;1641;51.306;12.384;2023-11-19T11:49:04;11.25;;;2.67;;
3257;SDS011;1641;51.306;12.384;2023-11-19T11:54:08;14.10;;;4.03;;
3257;SDS011;1641;51.306;12.384;2023-11-19T11:56:33;14.77;;;2.60;;
3257;SDS011;1641;51.306;12.384;2023-11-19T11:59:17;9.25;;;2.97;;
3257;SDS011;1641;51.306;12.384;2023-11-19T12:01:59;8.65;;;2.05;;
3257;SDS011;1641;51.306;12.384;2023-11-19T12:04:27;18.92;;;3.50;;
3257;SDS011;1641;51.306;12.384;2023-11-19T12:07:06;11.82;;;2.30;;
3257;SDS011;1641;51.306;12.384;2023-11-19T12:09:33;11.65;;;3.30;;
3257;SDS011;1641;51.306;12.384;2023-11-19T12:12:33;11.00;;;3.67;;
3257;SDS011;1641;51.306;12.384;2023-11-19T12:17:56;9.85;;;2.25;;
3257;SDS011;1641;51.306;12.384;2023-11-19T12:20:15;18.00;;;3.80;;
3257;SDS011;1641;51.306;12.384;2023-11-19T12:22:42;10.32;;;2.28;;
3257;SDS011;1641;51.306;12.384;2023-11-19T12:25:09;9.00;;;2.42;;
3257;SDS011;1641;51.306;12.384;2023-11-19T12:27:36;9.48;;;2.00;;
3257;SDS011;1641;51.306;12.384;2023-11-19T12:30:06;9.57;;;2.80;;
3257;SDS011;1641;51.306;12.384;2023-11-19T12:32:41;9.98;;;2.30;;
3257;SDS011;1641;51.306;12.384;2023-11-19T12:35:08;11.85;;;2.65;;
3257;SDS011;1641;51.306;12.384;2023-11-19T12:37:54;12.05;;;3.55;;
3257;SDS011;1641;51.306;12.384;2023-11-19T12:40:20;7.90;;;2.00;;
3257;SDS011;1641;51.306;12.384;2023-11-19T12:42:53;11.32;;;3.05;;
3257;SDS011;1641;51.306;12.384;2023-11-19T12:45:19;14.05;;;2.53;;
3257;SDS011;1641;51.306;12.384;2023-11-19T12:47:46;9.15;;;2.55;;
3257;SDS011;1641;51.306;12.384;2023-11-19T12:52:47;9.40;;;2.38;;
3257;SDS011;1641;51.306;12.384;2023-11-19T12:55:24;11.35;;;2.42;;
3257;SDS011;1641;51.306;12.384;2023-11-19T12:57:54;8.88;;;2.47;;
3257;SDS011;1641;51.306;12.384;2023-11-19T13:00:23;8.18;;;2.20;;
3257;SDS011;1641;51.306;12.384;2023-11-19T13:02:54;18.25;;;3.67;;
3257;SDS011;1641;51.306;12.384;2023-11-19T13:05:30;13.50;;;2.58;;
3257;SDS011;1641;51.306;12.384;2023-11-19T13:08:04;10.15;;;2.50;;
3257;SDS011;1641;51.306;12.384;2023-11-19T13:10:31;8.43;;;2.70;;
3257;SDS011;1641;51.306;12.384;2023-11-19T13:13:01;11.27;;;2.83;;
3257;SDS011;1641;51.306;12.384;2023-11-19T13:15:27;13.60;;;2.83;;
3257;SDS011;1641;51.306;12.384;2023-11-19T13:17:52;9.45;;;2.95;;
3257;SDS011;1641;51.306;12.384;2023-11-19T13:20:21;14.18;;;2.83;;
3257;SDS011;1641;51.306;12.384;2023-11-19T13:22:59;15.25;;;3.17;;
3257;SDS011;1641;51.306;12.384;2023-11-19T13:27:57;6.38;;;2.38;;
3257;SDS011;1641;51.306;12.384;2023-11-19T13:30:23;22.70;;;3.72;;
3257;SDS011;1641;51.306;12.384;2023-11-19T13:32:49;13.18;;;3.35;;
3257;SDS011;1641;51.306;12.384;2023-11-19T13:35:15;11.75;;;2.80;;
3257;SDS011;1641;51.306;12.384;2023-11-19T13:37:44;20.23;;;4.25;;
3257;SDS011;1641;51.306;12.384;2023-11-19T13:40:10;13.90;;;3.15;;
3257;SDS011;1641;51.306;12.384;2023-11-19T13:42:40;14.77;;;3.08;;
3257;SDS011;1641;51.306;12.384;2023-11-19T13:45:10;16.33;;;3.33;;
3257;SDS011;1641;51.306;12.384;2023-11-19T13:47:41;13.95;;;3.15;;
3257;SDS011;1641;51.306;12.384;2023-11-19T13:50:11;11.38;;;2.78;;
3257;SDS011;1641;51.306;12.384;2023-11-19T13:52:38;9.40;;;2.40;;
3257;SDS011;1641;51.306;12.384;2023-11-19T13:55:05;14.00;;;2.70;;
3257;SDS011;1641;51.306;12.384;2023-11-19T13:57:32;8.63;;;2.45;;
3257;SDS011;1641;51.306;12.384;2023-11-19T13:59:59;12.98;;;2.88;;
3257;SDS011;1641;51.306;12.384;2023-11-19T14:02:24;15.70;;;3.67;;
3257;SDS011;1641;51.306;12.384;2023-11-19T14:04:49;18.33;;;3.58;;
3257;SDS011;1641;51.306;12.384;2023-11-19T14:07:14;13.48;;;2.95;;
3257;SDS011;1641;51.306;12.384;2023-11-19T14:09:41;11.90;;;3.17;;
3257;SDS011;1641;51.306;12.384;2023-11-19T14:12:07;8.02;;;2.50;;
3257;SDS011;1641;51.306;12.384;2023-11-19T14:14:34;8.90;;;2.45;;
3257;SDS011;1641;51.306;12.384;2023-11-19T14:16:59;9.90;;;3.03;;
3257;SDS011;1641;51.306;12.384;2023-11-19T14:19:26;10.73;;;2.83;;
3257;SDS011;1641;51.306;12.384;2023-11-19T14:21:52;15.10;;;2.42;;
3257;SDS011;1641;51.306;12.384;2023-11-19T14:24:17;9.82;;;2.97;;
3257;SDS011;1641;51.306;12.384;2023-11-19T14:26:42;14.43;;;3.20;;
3257;SDS011;1641;51.306;12.384;2023-11-19T14:29:12;11.38;;;3.40;;
3257;SDS011;1641;51.306;12.384;2023-11-19T14:31:37;13.65;;;3.28;;
3257;SDS011;1641;51.306;12.384;2023-11-19T14:34:03;10.15;;;3.03;;
3257;SDS011;1641;51.306;12.384;2023-11-19T14:36:28;12.18;;;3.38;;
3257;SDS011;1641;51.306;12.384;2023-11-19T14:38:53;12.57;;;4.13;;
3257;SDS011;1641;51.306;12.384;2023-11-19T14:41:19;12.23;;;2.85;;
3257;SDS011;1641;51.306;12.384;2023-11-19T14:43:44;12.95;;;2.97;;
3257;SDS011;1641;51.306;12.384;2023-11-19T14:46:09;9.18;;;3.42;;
3257;SDS011;1641;51.306;12.384;2023-11-19T14:48:34;13.77;;;2.90;;
3257;SDS011;1641;51.306;12.384;2023-11-19T14:51:00;13.25;;;2.67;;
3257;SDS011;1641;51.306;12.384;2023-11-19T14:53:26;13.57;;;2.60;;
3257;SDS011;1641;51.306;12.384;2023-11-19T14:55:51;9.32;;;2.55;;
3257;SDS011;1641;51.306;12.384;2023-11-19T14:58:17;13.05;;;2.95;;
3257;SDS011;1641;51.306;12.384;2023-11-19T15:00:42;14.45;;;3.78;;
3257;SDS011;1641;51.306;12.384;2023-11-19T15:03:07;11.68;;;3.28;;
3257;SDS011;1641;51.306;12.384;2023-11-19T15:05:33;13.68;;;4.13;;
3257;SDS011;1641;51.306;12.384;2023-11-19T15:07:59;13.93;;;4.10;;
3257;SDS011;1641;51.306;12.384;2023-11-19T15:10:24;11.98;;;2.75;;
3257;SDS011;1641;51.306;12.384;2023-11-19T15:12:49;9.30;;;3.08;;
3257;SDS011;1641;51.306;12.384;2023-11-19T15:15:15;13.90;;;3.40;;
3257;SDS011;1641;51.306;12.384;2023-11-19T15:17:41;11.30;;;3.13;;
3257;SDS011;1641;51.306;12.384;2023-11-19T15:20:06;13.75;;;3.60;;
3257;SDS011;1641;51.306;12.384;2023-11-19T15:22:32;10.40;;;2.65;;